createdAt,value
2022-11-04T00:00:59.407Z,99.99
2022-11-04T00:01:58.683Z,99.99
2022-11-04T00:02:58.411Z,99.99
2022-11-04T00:03:58.594Z,99.99
2022-11-04T00:04:58.536Z,99.99
2022-11-04T00:05:58.347Z,99.99
2022-11-04T00:06:58.522Z,99.99
2022-11-04T00:07:58.770Z,99.99
2022-11-04T00:09:00.463Z,99.99
2022-11-04T00:09:58.486Z,99.99
2022-11-04T00:10:58.888Z,99.99
2022-11-04T00:11:58.370Z,99.99
2022-11-04T00:12:58.289Z,99.99
2022-11-04T00:13:58.275Z,99.99
2022-11-04T00:14:58.288Z,99.99
2022-11-04T00:15:58.343Z,99.99
2022-11-04T00:16:58.250Z,99.99
2022-11-04T00:17:58.273Z,99.99
2022-11-04T00:18:58.331Z,99.99
2022-11-04T00:19:58.445Z,99.99
2022-11-04T00:20:58.291Z,99.99
2022-11-04T00:21:58.359Z,99.99
2022-11-04T00:22:58.167Z,99.99
2022-11-04T00:23:58.448Z,99.99
2022-11-04T00:24:58.190Z,99.99
2022-11-04T00:25:58.260Z,99.99
2022-11-04T00:26:58.197Z,99.99
2022-11-04T00:27:58.070Z,99.99
2022-11-04T00:28:58.271Z,99.99
2022-11-04T00:29:58.846Z,99.99
2022-11-04T00:30:58.074Z,99.99
2022-11-04T00:31:58.989Z,99.99
2022-11-04T00:32:58.181Z,99.99
2022-11-04T00:33:58.126Z,99.99
2022-11-04T00:34:59.032Z,99.99
2022-11-04T00:35:58.084Z,99.99
2022-11-04T00:36:58.096Z,99.99
2022-11-04T00:37:58.043Z,99.99
2022-11-04T00:38:57.998Z,99.99
2022-11-04T00:39:58.102Z,99.99
2022-11-04T00:40:58.023Z,99.99
2022-11-04T00:41:58.068Z,99.99
2022-11-04T00:42:58.114Z,99.99
2022-11-04T00:43:57.975Z,99.99
2022-11-04T00:44:57.959Z,99.99
2022-11-04T00:45:57.948Z,99.99
2022-11-04T00:46:57.868Z,99.99
2022-11-04T00:47:58.092Z,99.99
2022-11-04T00:48:57.988Z,99.99
2022-11-04T00:49:57.862Z,99.99
2022-11-04T00:50:58.087Z,99.99
2022-11-04T00:51:57.917Z,99.99
2022-11-04T00:52:57.799Z,99.99
2022-11-04T00:53:57.942Z,99.99
2022-11-04T00:54:57.937Z,99.99
2022-11-04T00:55:57.787Z,99.99
2022-11-04T00:56:57.916Z,99.99
2022-11-04T00:57:57.909Z,99.99
2022-11-04T00:58:57.754Z,99.99
2022-11-04T00:59:57.810Z,99.99
2022-11-04T01:00:57.803Z,99.99
2022-11-04T01:01:57.929Z,99.99
2022-11-04T01:02:57.818Z,99.99
2022-11-04T01:03:58.132Z,99.99
2022-11-04T01:04:57.879Z,99.99
2022-11-04T01:05:57.742Z,99.99
2022-11-04T01:06:57.639Z,99.99
2022-11-04T01:07:57.803Z,99.99
2022-11-04T01:08:57.761Z,99.99
2022-11-04T01:09:57.592Z,99.99
2022-11-04T01:10:57.639Z,99.99
2022-11-04T01:11:57.782Z,99.99
2022-11-04T01:12:57.596Z,99.99
2022-11-04T01:13:57.680Z,99.99
2022-11-04T01:14:57.898Z,99.99
2022-11-04T01:15:57.645Z,99.99
2022-11-04T01:16:57.561Z,99.99
2022-11-04T01:17:57.530Z,99.99
2022-11-04T01:18:57.612Z,99.99
2022-11-04T01:19:57.682Z,99.99
2022-11-04T01:20:57.493Z,99.99
2022-11-04T01:21:57.674Z,99.99
2022-11-04T01:22:57.633Z,99.99
2022-11-04T01:23:57.754Z,99.99
2022-11-04T01:24:57.566Z,99.99
2022-11-04T01:25:57.676Z,99.99
2022-11-04T01:26:57.432Z,99.99
2022-11-04T01:27:57.452Z,99.99
2022-11-04T01:28:57.492Z,99.99
2022-11-04T01:29:57.464Z,99.99
2022-11-04T01:30:57.475Z,99.99
2022-11-04T01:31:58.551Z,99.99
2022-11-04T01:32:57.460Z,99.99
2022-11-04T01:33:58.457Z,99.99
2022-11-04T01:34:57.487Z,99.99
2022-11-04T01:35:57.338Z,99.99
2022-11-04T01:36:57.598Z,99.99
2022-11-04T01:37:57.472Z,99.99
2022-11-04T01:38:57.455Z,99.99
2022-11-04T01:39:58.827Z,99.99
2022-11-04T01:40:57.811Z,99.99
2022-11-04T01:41:57.290Z,99.99
2022-11-04T01:42:57.373Z,99.99
2022-11-04T01:43:57.383Z,99.99
2022-11-04T01:44:57.225Z,99.99
2022-11-04T01:45:57.244Z,99.99
2022-11-04T01:46:58.321Z,99.99
2022-11-04T01:47:57.443Z,99.99
2022-11-04T01:48:57.207Z,99.99
2022-11-04T01:49:57.233Z,99.99
2022-11-04T01:50:57.145Z,99.99
2022-11-04T01:51:57.593Z,99.99
2022-11-04T01:52:57.111Z,99.99
2022-11-04T01:53:57.152Z,99.99
2022-11-04T01:54:57.312Z,99.99
2022-11-04T01:55:57.134Z,99.99
2022-11-04T01:56:57.204Z,99.99
2022-11-04T01:57:57.072Z,99.99
2022-11-04T01:58:57.067Z,99.99
2022-11-04T01:59:57.942Z,99.99
2022-11-04T02:00:57.252Z,99.99
2022-11-04T02:01:57.357Z,99.99
2022-11-04T02:02:57.282Z,99.99
2022-11-04T02:03:56.979Z,99.99
2022-11-04T02:04:57.240Z,99.99
2022-11-04T02:05:57.100Z,99.99
2022-11-04T02:06:56.961Z,99.99
2022-11-04T02:07:57.102Z,99.99
2022-11-04T02:08:58.073Z,99.99
2022-11-04T02:09:57.012Z,99.99
2022-11-04T02:10:57.133Z,99.99
2022-11-04T02:11:56.943Z,99.99
2022-11-04T02:12:57.825Z,99.99
2022-11-04T02:13:57.098Z,99.99
2022-11-04T02:14:57.018Z,99.99
2022-11-04T02:15:56.980Z,99.99
2022-11-04T02:16:56.848Z,99.99
2022-11-04T02:17:56.928Z,99.99
2022-11-04T02:18:56.848Z,99.99
2022-11-04T02:19:56.982Z,99.99
2022-11-04T02:20:56.798Z,99.99
2022-11-04T02:21:57.118Z,99.99
2022-11-04T02:22:56.776Z,99.99
2022-11-04T02:23:57.033Z,99.99
2022-11-04T02:24:56.809Z,99.99
2022-11-04T02:25:56.799Z,99.99
2022-11-04T02:26:56.863Z,99.99
2022-11-04T02:27:56.975Z,99.99
2022-11-04T02:28:56.754Z,99.99
2022-11-04T02:29:56.759Z,99.99
2022-11-04T02:30:56.681Z,99.99
2022-11-04T02:31:56.748Z,99.99
2022-11-04T02:32:56.656Z,99.99
2022-11-04T02:33:56.783Z,99.99
2022-11-04T02:34:56.832Z,99.99
2022-11-04T02:35:56.749Z,99.99
2022-11-04T02:36:56.630Z,99.99
2022-11-04T02:37:57.109Z,99.99
2022-11-04T02:38:57.031Z,99.99
2022-11-04T02:39:56.852Z,99.99
2022-11-04T02:40:56.628Z,99.99
2022-11-04T02:41:58.375Z,99.99
2022-11-04T02:42:56.565Z,99.99
2022-11-04T02:43:56.707Z,99.99
2022-11-04T02:44:56.707Z,99.99
2022-11-04T02:45:57.331Z,99.99
2022-11-04T02:46:56.705Z,99.99
2022-11-04T02:47:56.744Z,99.99
2022-11-04T02:48:56.471Z,99.99
2022-11-04T02:49:56.558Z,99.99
2022-11-04T02:50:56.631Z,99.99
2022-11-04T02:51:57.395Z,99.99
2022-11-04T02:52:56.535Z,99.99
2022-11-04T02:53:56.426Z,99.99
2022-11-04T03:43:44.136Z,99.99
2022-11-04T03:44:45.267Z,99.99
2022-11-04T03:45:44.954Z,99.99
2022-11-04T03:46:45.149Z,99.99
2022-11-04T03:47:45.363Z,99.99
2022-11-04T03:48:44.918Z,99.99
2022-11-04T03:49:44.985Z,99.99
2022-11-04T03:50:44.907Z,99.99
2022-11-04T03:51:44.988Z,99.99
2022-11-04T03:52:45.880Z,99.99
2022-11-04T03:53:44.879Z,99.99
2022-11-04T03:54:45.851Z,99.99
2022-11-04T03:55:44.950Z,99.99
2022-11-04T03:56:44.850Z,99.99
2022-11-04T03:57:44.980Z,99.99
2022-11-04T03:58:44.993Z,99.99
2022-11-04T03:59:44.801Z,99.99
2022-11-04T04:00:44.816Z,99.99
2022-11-04T04:01:45.024Z,99.99
2022-11-04T04:02:44.935Z,99.99
2022-11-04T04:03:45.035Z,99.99
2022-11-04T04:04:44.964Z,99.93
2022-11-04T04:05:44.934Z,99.93
2022-11-04T04:06:44.761Z,99.99
2022-11-04T04:07:44.843Z,99.62
2022-11-04T04:08:44.902Z,99.82
2022-11-04T04:09:44.673Z,99.93
2022-11-04T04:10:44.783Z,99.99
2022-11-04T04:11:44.851Z,99.99
2022-11-04T04:12:44.648Z,99.93
2022-11-04T04:13:44.740Z,99.93
2022-11-04T04:14:44.625Z,99.99
2022-11-04T04:15:44.995Z,99.99
2022-11-04T04:16:44.669Z,99.99
2022-11-04T04:17:45.125Z,99.99
2022-11-04T04:18:44.561Z,99.99
2022-11-04T04:19:44.842Z,99.99
2022-11-04T04:20:44.747Z,99.99
2022-11-04T04:21:44.579Z,99.99
2022-11-04T04:22:44.613Z,99.99
2022-11-04T04:23:44.754Z,99.99
2022-11-04T04:24:44.535Z,99.99
2022-11-04T04:25:45.212Z,99.99
2022-11-04T04:26:44.536Z,99.99
2022-11-04T04:27:44.494Z,99.99
2022-11-04T04:28:44.617Z,99.99
2022-11-04T04:29:44.550Z,99.99
2022-11-04T05:34:18.219Z,99.99
2022-11-04T05:35:19.167Z,99.99
2022-11-04T05:36:19.227Z,99.99
2022-11-04T05:37:19.164Z,99.99
2022-11-04T05:38:19.151Z,99.99
2022-11-04T05:39:19.349Z,99.99
2022-11-04T05:40:19.172Z,99.99
2022-11-04T05:41:19.118Z,99.99
2022-11-04T05:42:19.269Z,99.99
2022-11-04T05:43:19.085Z,99.99
2022-11-04T05:44:19.059Z,99.99
2022-11-04T05:45:19.068Z,99.99
2022-11-04T05:46:19.124Z,99.99
2022-11-04T05:47:19.061Z,99.99
2022-11-04T05:48:19.130Z,99.99
2022-11-04T05:49:19.197Z,99.99
2022-11-04T05:50:20.046Z,99.99
2022-11-04T05:51:19.063Z,99.99
2022-11-04T05:52:19.044Z,99.99
2022-11-04T05:53:18.980Z,99.99
2022-11-04T05:54:19.016Z,99.99
2022-11-04T05:55:18.989Z,99.99
2022-11-04T05:56:20.578Z,99.99
2022-11-04T05:57:19.829Z,99.99
2022-11-04T05:58:18.911Z,99.99
2022-11-04T05:59:18.914Z,99.99
2022-11-04T06:00:19.451Z,99.99
2022-11-04T06:01:18.930Z,99.99
2022-11-04T06:02:19.064Z,99.99
2022-11-04T06:03:18.923Z,99.99
2022-11-04T06:04:19.122Z,99.99
2022-11-04T06:05:19.018Z,99.99
2022-11-04T06:06:18.901Z,99.99
2022-11-04T06:07:18.870Z,99.99
2022-11-04T06:08:18.793Z,99.99
2022-11-04T06:09:19.517Z,99.99
2022-11-04T06:10:18.805Z,99.99
2022-11-04T06:11:18.782Z,99.99
2022-11-04T06:12:18.782Z,99.99
2022-11-04T06:13:18.847Z,99.99
2022-11-04T06:14:19.115Z,99.99
2022-11-04T06:15:19.091Z,99.99
2022-11-04T06:16:18.728Z,99.99
2022-11-04T06:17:18.972Z,99.99
2022-11-04T06:18:18.712Z,99.99
2022-11-04T06:19:18.771Z,99.99
2022-11-04T06:20:18.699Z,99.99
2022-11-04T06:21:18.691Z,99.99
2022-11-04T06:22:18.685Z,99.99
2022-11-04T06:23:18.617Z,99.99
2022-11-04T06:24:18.621Z,99.99
2022-11-04T06:25:18.604Z,99.99
2022-11-04T06:26:21.609Z,99.99
2022-11-04T06:27:18.629Z,99.99
2022-11-04T06:28:18.651Z,99.99
2022-11-04T06:35:20.777Z,99.99
2022-11-04T06:36:21.829Z,99.99
2022-11-04T07:06:10.122Z,99.99
2022-11-04T07:07:12.014Z,99.99
2022-11-04T07:08:11.676Z,99.99
2022-11-04T07:09:11.132Z,99.99
2022-11-04T07:10:11.098Z,99.99
2022-11-04T07:11:11.050Z,99.99
2022-11-04T07:12:11.286Z,99.99
2022-11-04T07:13:11.204Z,99.99
2022-11-04T08:44:41.379Z,99.99
2022-11-04T08:45:42.148Z,99.99
2022-11-04T08:46:41.755Z,99.99
2022-11-04T08:47:42.034Z,99.99
2022-11-04T08:48:41.760Z,99.99
2022-11-04T08:49:41.773Z,99.99
2022-11-04T08:50:41.669Z,99.99
2022-11-04T08:51:43.388Z,99.99
2022-11-04T08:52:41.760Z,99.99
2022-11-04T08:53:41.749Z,99.99
2022-11-04T08:54:41.622Z,99.99
2022-11-04T08:55:42.045Z,99.99
2022-11-04T08:56:41.618Z,99.99
2022-11-04T08:57:41.724Z,99.99
2022-11-04T08:58:41.822Z,99.99
2022-11-04T08:59:41.556Z,99.99
2022-11-04T09:00:41.835Z,99.99
2022-11-04T09:01:41.739Z,99.99
2022-11-04T09:02:41.527Z,99.99
2022-11-04T09:03:41.711Z,99.99
2022-11-04T09:04:41.717Z,99.99
2022-11-04T09:05:41.840Z,99.99
2022-11-04T09:06:41.597Z,99.99
2022-11-04T09:07:41.585Z,99.99
2022-11-04T09:08:41.564Z,99.99
2022-11-04T09:09:42.298Z,99.99
2022-11-04T09:10:41.605Z,99.99
2022-11-04T09:11:41.589Z,99.99
2022-11-04T09:37:44.377Z,99.99
2022-11-04T09:38:45.362Z,99.99
2022-11-04T09:39:49.972Z,99.99
2022-11-04T09:40:45.454Z,99.99
2022-11-04T09:41:45.441Z,99.99
2022-11-04T09:42:45.568Z,99.99
2022-11-04T09:43:45.955Z,99.99
2022-11-04T09:45:14.960Z,99.99
2022-11-04T09:45:45.315Z,99.99
2022-11-04T09:46:45.316Z,99.99
2022-11-04T09:47:45.211Z,99.99
2022-11-04T09:48:45.335Z,99.99
2022-11-04T09:49:45.221Z,99.99
2022-11-04T09:50:45.259Z,99.99
2022-11-04T09:51:55.254Z,99.99
2022-11-04T09:52:47.176Z,99.99
2022-11-04T09:53:45.165Z,99.99
2022-11-04T09:54:47.441Z,99.99
2022-11-04T09:55:45.203Z,99.99
2022-11-04T09:56:45.323Z,99.99
2022-11-04T09:57:45.410Z,99.99
2022-11-04T09:58:45.423Z,99.99
2022-11-04T09:59:45.849Z,99.99
2022-11-04T10:00:46.039Z,99.99
2022-11-04T10:01:45.254Z,99.99
2022-11-04T10:02:45.174Z,99.99
2022-11-04T10:03:45.014Z,99.99
2022-11-04T10:04:45.173Z,99.99
2022-11-04T10:05:46.155Z,99.99
2022-11-04T10:06:44.990Z,99.99
2022-11-04T10:07:45.909Z,99.99
2022-11-04T10:08:45.024Z,99.99
2022-11-04T10:09:45.975Z,99.99
2022-11-04T10:10:47.984Z,99.99
2022-11-04T10:11:44.966Z,99.99
2022-11-04T10:12:45.093Z,99.99
2022-11-04T10:13:45.070Z,99.99
2022-11-04T10:14:45.945Z,99.99
2022-11-04T10:15:45.032Z,99.99
2022-11-04T10:16:46.185Z,99.99
2022-11-04T10:17:45.020Z,99.99
2022-11-04T10:18:44.910Z,99.99
2022-11-04T10:19:45.567Z,99.99
2022-11-04T10:20:46.026Z,99.99
2022-11-04T10:21:44.803Z,99.99
2022-11-04T10:22:44.855Z,99.99
2022-11-04T10:23:45.045Z,99.99
2022-11-04T10:24:44.768Z,99.99
2022-11-04T10:25:44.847Z,99.99
2022-11-04T10:26:44.903Z,99.99
2022-11-04T10:27:44.823Z,99.99
2022-11-04T10:28:44.832Z,99.99
2022-11-04T10:29:45.012Z,99.99
2022-11-04T10:30:44.767Z,99.99
2022-11-04T10:31:44.793Z,99.99
2022-11-04T10:32:45.224Z,99.99
2022-11-04T10:33:44.719Z,99.99
2022-11-04T10:34:44.685Z,99.99
2022-11-04T10:35:46.499Z,99.99
2022-11-04T10:36:44.688Z,99.99
2022-11-04T10:37:45.640Z,99.99
2022-11-04T10:38:45.338Z,99.99
2022-11-04T10:39:44.610Z,99.99
2022-11-04T10:40:45.894Z,99.99
2022-11-04T10:41:44.668Z,99.99
2022-11-04T10:42:45.451Z,99.99
2022-11-04T10:43:44.704Z,99.99
2022-11-04T10:44:44.823Z,99.99
2022-11-04T10:45:45.572Z,99.99
2022-11-04T10:46:44.554Z,99.99
2022-11-04T10:47:44.605Z,99.99
2022-11-04T10:48:44.940Z,99.99
2022-11-04T10:50:06.806Z,99.99
2022-11-04T10:50:45.135Z,99.99
2022-11-04T10:51:44.525Z,99.99
2022-11-04T10:52:44.645Z,99.99
2022-11-04T10:53:44.464Z,99.99
2022-11-04T10:54:44.453Z,99.99
2022-11-04T10:55:44.674Z,99.99
2022-11-04T10:56:45.403Z,99.99
2022-11-04T10:57:44.644Z,99.99
2022-11-04T10:58:45.598Z,99.99
2022-11-04T10:59:44.578Z,99.99
2022-11-04T11:00:44.624Z,99.99
2022-11-04T11:01:44.753Z,99.99
2022-11-04T11:02:44.355Z,99.99
2022-11-04T11:03:46.855Z,99.99
2022-11-04T11:04:44.423Z,99.99
2022-11-04T11:05:44.410Z,99.99
2022-11-04T11:06:44.599Z,99.99
2022-11-04T11:07:44.453Z,99.99
2022-11-04T11:08:44.270Z,99.99
2022-11-04T11:09:46.721Z,99.99
2022-11-04T11:10:44.442Z,99.99
2022-11-04T11:11:44.247Z,99.99
2022-11-04T11:12:50.928Z,99.99
2022-11-04T11:13:44.455Z,99.99
2022-11-04T11:14:44.202Z,99.79
2022-11-04T11:15:44.376Z,99.74
2022-11-04T11:16:44.395Z,99.33
2022-11-04T11:17:44.217Z,98.93
2022-11-04T11:18:44.960Z,98.93
2022-11-04T11:19:44.266Z,98.82
2022-11-04T11:20:44.147Z,98.72
2022-11-04T11:21:44.321Z,98.21
2022-11-04T11:22:44.931Z,97.90
2022-11-04T11:23:44.129Z,97.80
2022-11-04T11:24:44.276Z,98.06
2022-11-04T11:25:45.166Z,97.75
2022-11-04T11:26:44.087Z,97.45
2022-11-04T11:27:44.278Z,97.55
2022-11-04T11:28:45.341Z,97.55
2022-11-04T11:29:44.030Z,97.14
2022-11-04T11:30:44.265Z,96.94
2022-11-04T11:31:44.241Z,96.73
2022-11-04T11:32:44.062Z,96.84
2022-11-04T11:33:45.039Z,96.79
2022-11-04T11:34:44.308Z,96.69
2022-11-04T11:35:44.013Z,96.34
2022-11-04T11:36:44.098Z,95.62
2022-11-04T11:37:44.203Z,95.58
2022-11-04T11:38:43.962Z,94.97
2022-11-04T11:39:44.943Z,94.97
2022-11-04T11:41:10.402Z,95.07
2022-11-04T11:41:46.035Z,94.66
2022-11-04T11:42:44.097Z,94.46
2022-11-04T11:43:44.435Z,94.15
2022-11-04T11:44:44.043Z,94.35
2022-11-04T11:45:43.910Z,94.76
2022-11-04T11:46:43.940Z,94.46
2022-11-04T11:47:43.923Z,94.66
2022-11-04T11:48:44.020Z,94.76
2022-11-04T11:49:44.025Z,93.74
2022-11-04T11:50:44.652Z,93.90
2022-11-04T11:51:43.833Z,93.29
2022-11-04T11:52:43.877Z,93.19
2022-11-04T11:53:43.991Z,92.89
2022-11-04T11:54:43.955Z,93.70
2022-11-04T11:55:43.815Z,94.26
2022-11-04T11:57:11.484Z,94.30
2022-11-04T11:57:43.899Z,94.71
2022-11-04T12:00:48.321Z,95.51
2022-11-04T12:01:43.843Z,97.24
2022-11-04T12:02:43.808Z,98.82
2022-11-04T12:09:44.339Z,99.99
2022-11-04T12:10:50.785Z,99.99
2022-11-04T12:11:45.368Z,99.99
2022-11-04T12:12:43.906Z,99.99
2022-11-04T12:13:43.563Z,99.99
2022-11-04T12:14:48.737Z,99.99
2022-11-04T12:15:44.843Z,99.99
2022-11-04T12:16:43.504Z,99.99
2022-11-04T12:17:43.957Z,99.99
2022-11-04T12:18:43.624Z,99.99
2022-11-04T12:19:43.478Z,99.99
2022-11-04T12:20:44.673Z,99.99
2022-11-04T12:21:43.476Z,99.99
2022-11-04T12:22:43.444Z,99.99
2022-11-04T12:23:43.653Z,99.99
2022-11-04T12:24:43.500Z,99.99
2022-11-04T12:25:43.477Z,99.99
2022-11-04T12:26:44.013Z,99.99
2022-11-04T12:27:43.723Z,99.99
2022-11-04T12:28:43.819Z,99.99
2022-11-04T12:29:44.273Z,99.99
2022-11-04T12:30:43.424Z,99.99
2022-11-04T12:31:43.366Z,99.99
2022-11-04T12:32:44.970Z,99.82
2022-11-04T12:33:44.406Z,99.41
2022-11-04T12:34:43.462Z,99.26
2022-11-04T12:35:44.151Z,98.95
2022-11-04T12:36:44.347Z,98.95
2022-11-04T12:37:43.387Z,99.05
2022-11-04T12:38:43.271Z,99.15
2022-11-04T12:39:43.456Z,99.21
2022-11-04T12:40:43.489Z,99.31
2022-11-04T12:42:14.842Z,99.27
2022-11-04T12:42:43.397Z,98.05
2022-11-04T12:43:43.319Z,96.84
2022-11-04T12:44:45.454Z,92.65
2022-11-04T12:45:43.308Z,89.03
2022-11-04T12:46:44.079Z,87.12
2022-11-04T12:47:43.420Z,86.15
2022-11-04T12:48:43.319Z,86.74
2022-11-04T12:49:43.837Z,86.21
2022-11-04T12:50:43.179Z,83.94
2022-11-04T12:51:43.451Z,82.82
2022-11-04T12:52:45.000Z,86.02
2022-11-04T12:53:43.166Z,85.68
2022-11-04T12:54:43.253Z,84.08
2022-11-04T12:55:44.055Z,83.49
2022-11-04T12:56:43.243Z,83.45
2022-11-04T12:57:43.478Z,81.59
2022-11-04T12:58:43.297Z,80.38
2022-11-04T12:59:43.063Z,79.83
2022-11-04T13:00:43.946Z,79.83
2022-11-04T13:01:43.455Z,79.79
2022-11-04T13:02:43.354Z,79.05
2022-11-04T13:03:43.366Z,78.41
2022-11-04T13:04:44.080Z,78.30
2022-11-04T13:05:43.256Z,80.52
2022-11-04T13:06:43.182Z,84.01
2022-11-04T13:07:43.050Z,84.83
2022-11-04T13:08:43.161Z,82.21
2022-11-04T13:09:43.849Z,86.22
2022-11-04T13:10:43.640Z,87.93
2022-11-04T13:11:45.551Z,89.54
2022-11-04T13:12:42.960Z,86.39
2022-11-04T13:13:43.073Z,83.90
2022-11-04T13:14:43.071Z,82.10
2022-11-04T13:15:42.897Z,81.87
2022-11-04T13:16:44.935Z,82.95
2022-11-04T13:17:43.349Z,83.80
2022-11-04T13:18:44.602Z,80.98
2022-11-04T13:19:43.093Z,79.39
2022-11-04T13:20:43.080Z,78.81
2022-11-04T13:21:42.994Z,76.75
2022-11-04T13:22:42.804Z,77.32
2022-11-04T13:23:44.062Z,76.18
2022-11-04T13:24:42.732Z,75.71
2022-11-04T13:25:44.149Z,76.38
2022-11-04T13:26:42.831Z,78.08
2022-11-04T13:27:43.551Z,81.71
2022-11-04T13:29:58.982Z,85.64
2022-11-04T13:31:00.356Z,84.78
2022-11-04T13:31:59.791Z,83.95
2022-11-04T13:33:00.331Z,86.71
2022-11-04T13:33:59.845Z,88.32
2022-11-04T13:34:59.929Z,88.98
2022-11-04T13:35:59.674Z,85.78
2022-11-04T13:36:59.891Z,82.19
2022-11-04T13:37:59.730Z,84.44
2022-11-04T13:39:00.714Z,85.68
2022-11-04T13:39:59.635Z,87.45
2022-11-04T13:41:00.302Z,88.51
2022-11-04T13:41:59.690Z,88.32
2022-11-04T13:42:59.870Z,80.19
2022-11-04T13:44:00.460Z,75.62
2022-11-04T13:44:59.577Z,73.19
2022-11-04T13:46:00.502Z,71.40
2022-11-04T13:46:59.680Z,69.58
2022-11-04T13:48:00.293Z,69.21
2022-11-04T13:49:00.309Z,68.95
2022-11-04T13:49:59.566Z,66.02
2022-11-04T13:50:59.619Z,65.58
2022-11-04T13:51:59.840Z,65.01
2022-11-04T13:52:59.694Z,65.48
2022-11-04T13:53:59.508Z,64.07
2022-11-04T13:55:00.630Z,63.59
2022-11-04T13:56:14.806Z,65.21
2022-11-04T13:57:00.538Z,63.22
2022-11-04T13:57:59.415Z,63.70
2022-11-04T13:58:59.635Z,63.73
2022-11-04T14:00:00.281Z,64.40
2022-11-04T14:01:02.471Z,64.07
2022-11-04T14:01:59.652Z,63.26
2022-11-04T14:02:59.604Z,63.76
2022-11-04T14:03:59.660Z,63.96
2022-11-04T14:04:59.754Z,63.53
2022-11-04T14:05:59.360Z,63.64
2022-11-04T14:06:59.495Z,63.64
2022-11-04T14:07:59.644Z,64.34
2022-11-04T14:08:59.758Z,64.14
2022-11-04T14:09:59.366Z,64.64
2022-11-04T14:10:59.808Z,64.72
2022-11-04T14:11:59.563Z,63.50
2022-11-04T14:12:59.540Z,64.07
2022-11-04T14:13:59.249Z,63.47
2022-11-04T14:14:59.636Z,64.24
2022-11-04T14:15:59.847Z,63.93
2022-11-04T14:16:59.576Z,64.24
2022-11-04T14:17:59.199Z,64.87
2022-11-04T14:18:59.310Z,65.08
2022-11-04T14:19:59.220Z,65.58
2022-11-04T14:20:59.160Z,66.05
2022-11-04T14:21:59.240Z,66.52
2022-11-04T14:22:59.312Z,66.02
2022-11-04T14:23:59.241Z,66.39
2022-11-04T14:24:59.379Z,66.25
2022-11-04T14:25:59.332Z,65.35
2022-11-04T14:26:59.256Z,65.81
2022-11-04T14:27:59.340Z,66.62
2022-11-04T14:29:02.248Z,66.72
2022-11-04T14:29:59.780Z,67.40
2022-11-04T14:30:59.212Z,66.08
2022-11-04T14:31:59.113Z,66.79
2022-11-04T14:32:59.376Z,66.08
2022-11-04T14:33:59.069Z,66.72
2022-11-04T14:34:59.187Z,66.89
2022-11-04T14:35:59.153Z,66.96
2022-11-04T14:37:00.729Z,67.66
2022-11-04T14:37:59.337Z,67.97
2022-11-04T14:38:58.997Z,68.10
2022-11-04T14:39:59.063Z,70.09
2022-11-04T14:41:01.407Z,72.41
2022-11-04T14:41:59.368Z,73.70
2022-11-04T14:42:59.552Z,75.09
2022-11-04T14:43:59.521Z,76.51
2022-11-04T14:44:59.035Z,77.01
2022-11-04T14:45:59.190Z,78.19
2022-11-04T14:46:59.663Z,76.43
2022-11-04T14:47:59.230Z,75.55
2022-11-04T14:48:59.947Z,73.32
2022-11-04T14:49:59.027Z,73.39
2022-11-04T14:50:58.909Z,73.15
2022-11-04T14:51:59.977Z,73.25
2022-11-04T14:52:58.942Z,72.81
2022-11-04T14:53:59.957Z,72.81
2022-11-04T14:54:58.916Z,71.13
2022-11-04T14:55:58.794Z,70.42
2022-11-04T14:56:58.756Z,69.14
2022-11-04T14:58:00.027Z,69.34
2022-11-04T14:58:59.314Z,68.26
2022-11-04T14:59:59.725Z,68.87
2022-11-04T15:00:58.866Z,69.68
2022-11-04T15:01:58.979Z,70.29
2022-11-04T15:02:58.965Z,70.89
2022-11-04T15:04:15.488Z,71.20
2022-11-04T15:04:58.752Z,71.44
2022-11-04T15:05:58.691Z,72.04
2022-11-04T15:06:58.748Z,72.55
2022-11-04T15:07:59.013Z,73.29
2022-11-04T15:08:58.730Z,74.04
2022-11-04T15:09:58.678Z,74.65
2022-11-04T15:10:58.627Z,74.74
2022-11-04T15:11:58.660Z,75.09
2022-11-04T15:12:58.611Z,75.79
2022-11-04T15:13:58.805Z,76.24
2022-11-04T15:14:58.713Z,76.75
2022-11-04T15:15:58.526Z,76.75
2022-11-04T15:16:58.501Z,76.88
2022-11-04T15:17:58.684Z,77.39
2022-11-04T15:18:58.491Z,77.39
2022-11-04T15:19:58.535Z,77.53
2022-11-04T15:20:58.498Z,78.04
2022-11-04T15:21:58.466Z,78.48
2022-11-04T15:22:58.549Z,79.33
2022-11-04T15:23:58.448Z,80.24
2022-11-04T15:24:58.415Z,80.99
2022-11-04T15:25:58.461Z,81.60
2022-11-04T15:26:58.518Z,82.35
2022-11-04T15:27:58.567Z,82.97
2022-11-04T15:28:59.169Z,83.31
2022-11-04T15:29:58.559Z,83.42
2022-11-04T15:30:58.379Z,83.31
2022-11-04T15:31:58.412Z,83.65
2022-11-04T15:32:59.193Z,83.96
2022-11-04T15:33:58.328Z,84.17
2022-11-04T15:34:59.179Z,84.47
2022-11-04T15:35:58.330Z,84.61
2022-11-04T15:36:58.392Z,84.92
2022-11-04T15:37:58.278Z,84.92
2022-11-04T15:38:58.382Z,84.82
2022-11-04T15:39:58.283Z,84.75
2022-11-04T15:40:58.252Z,84.86
2022-11-04T15:41:58.293Z,85.06
2022-11-04T15:42:58.276Z,84.25
2022-11-04T15:43:58.238Z,83.94
2022-11-04T15:44:58.263Z,83.33
2022-11-04T15:45:58.203Z,82.31
2022-11-04T15:46:58.264Z,82.61
2022-11-04T15:47:58.168Z,82.21
2022-11-04T15:48:58.271Z,82.41
2022-11-04T15:49:58.134Z,82.71
2022-11-04T15:50:58.165Z,82.61
2022-11-04T15:51:58.127Z,82.24
2022-11-04T15:52:58.482Z,82.65
2022-11-04T15:53:58.162Z,82.71
2022-11-04T15:54:58.111Z,83.06
2022-11-04T15:55:58.077Z,83.16
2022-11-04T15:56:58.052Z,83.26
2022-11-04T15:57:58.110Z,83.16
2022-11-04T15:58:58.136Z,83.06
2022-11-04T15:59:58.052Z,82.86
2022-11-04T16:00:58.094Z,82.55
2022-11-04T16:01:58.094Z,82.24
2022-11-04T16:02:58.017Z,82.35
2022-11-04T16:03:57.971Z,82.86
2022-11-04T16:04:57.965Z,83.37
2022-11-04T16:05:57.954Z,83.37
2022-11-04T16:06:57.935Z,82.96
2022-11-04T16:07:58.004Z,82.55
2022-11-04T16:08:57.934Z,82.75
2022-11-04T16:09:57.932Z,82.24
2022-11-04T16:10:57.969Z,82.04
2022-11-04T16:11:57.898Z,82.24
2022-11-04T16:12:57.883Z,82.55
2022-11-04T16:13:57.904Z,83.16
2022-11-04T16:14:57.857Z,83.67
2022-11-04T16:15:57.853Z,84.08
2022-11-04T16:16:57.850Z,84.49
2022-11-04T16:17:57.851Z,84.69
2022-11-04T16:18:57.840Z,84.80
2022-11-04T16:19:57.839Z,84.80
2022-11-04T16:20:57.823Z,85.21
2022-11-04T16:21:57.831Z,85.30
2022-11-04T16:22:57.777Z,85.30
2022-11-04T16:23:57.947Z,85.61
2022-11-04T16:24:57.772Z,85.51
2022-11-04T16:25:57.819Z,85.30
2022-11-04T16:26:57.811Z,85.21
2022-11-04T16:27:59.546Z,84.39
2022-11-04T16:28:57.693Z,84.39
2022-11-04T16:29:57.690Z,83.98
2022-11-04T16:30:57.670Z,83.57
2022-11-04T16:31:57.862Z,83.40
2022-11-04T16:32:57.770Z,83.51
2022-11-04T16:33:57.922Z,83.30
2022-11-04T16:34:57.660Z,83.61
2022-11-04T16:35:57.636Z,83.51
2022-11-04T16:36:57.594Z,83.51
2022-11-04T16:37:57.588Z,83.61
2022-11-04T16:38:57.608Z,83.40
2022-11-04T16:39:57.569Z,81.37
2022-11-04T16:40:57.554Z,80.14
2022-11-04T16:41:57.587Z,78.77
2022-11-04T16:42:57.527Z,78.61
2022-11-04T16:43:57.558Z,78.61
2022-11-04T16:44:57.580Z,79.02
2022-11-04T16:45:57.516Z,78.09
2022-11-04T16:46:57.669Z,76.56
2022-11-04T16:47:57.590Z,76.67
2022-11-04T16:48:57.468Z,77.18
2022-11-04T16:49:57.453Z,76.97
2022-11-04T16:50:57.435Z,77.28
2022-11-04T16:51:57.502Z,77.69
2022-11-04T16:52:57.562Z,78.09
2022-11-04T16:53:57.468Z,78.71
2022-11-04T16:54:57.433Z,79.12
2022-11-04T16:55:57.424Z,79.73
2022-11-04T16:56:57.375Z,80.04
2022-11-04T16:57:57.378Z,80.55
2022-11-04T16:58:57.368Z,80.55
2022-11-04T16:59:57.368Z,80.75
2022-11-04T17:01:02.446Z,80.44
2022-11-04T17:01:57.453Z,80.55
2022-11-04T17:02:57.316Z,80.65
2022-11-04T17:03:57.297Z,81.20
2022-11-04T17:04:57.334Z,81.60
2022-11-04T17:05:57.275Z,81.91
2022-11-04T17:06:57.308Z,82.22
2022-11-04T17:08:03.295Z,82.63
2022-11-04T17:08:57.245Z,82.83
2022-11-04T17:09:57.232Z,83.14
2022-11-04T17:10:57.262Z,83.34
2022-11-04T17:11:57.233Z,83.44
2022-11-04T17:12:57.200Z,82.73
2022-11-04T17:13:57.810Z,82.22
2022-11-04T17:14:57.249Z,81.71
2022-11-04T17:15:57.199Z,79.46
2022-11-04T17:16:57.152Z,79.46
2022-11-04T17:17:57.161Z,78.85
2022-11-04T17:18:57.130Z,78.23
2022-11-04T17:19:57.138Z,79.05
2022-11-04T17:20:57.157Z,79.70
2022-11-04T17:21:57.180Z,81.03
2022-11-04T17:22:57.077Z,81.54
2022-11-04T17:23:57.071Z,81.79
2022-11-04T17:24:57.079Z,82.91